Time;durP1;ratioP1;P1;durP2;ratioP2;P2;SDS_P1;SDS_P2;PMS_P1;PMS_P2;Temp;Humidity;BMP_temperature;BMP_pressure;BME280_temperature;BME280_humidity;BME280_pressure;Samples;Min_cycle;Max_cycle;Signal;HPM_P1;HPM_P2
2021/01/13 00:00:05;;;;;;;0.80;0.50;;;8.90;81.00;;;;;;5084666;28;20468;-52
2021/01/13 00:02:30;;;;;;;0.52;0.40;;;8.90;81.00;;;;;;5085394;28;20094;-52
2021/01/13 00:04:56;;;;;;;1.67;0.85;;;8.90;81.10;;;;;;5084829;28;20044;-48
2021/01/13 00:07:21;;;;;;;0.40;0.40;;;8.90;81.10;;;;;;5084879;28;20071;-51
2021/01/13 00:09:47;;;;;;;0.40;0.40;;;8.90;81.00;;;;;;5085038;28;20051;-49
2021/01/13 00:12:13;;;;;;;1.05;0.60;;;8.90;81.00;;;;;;5085942;28;20045;-48
2021/01/13 00:14:39;;;;;;;1.60;0.60;;;8.90;81.00;;;;;;5084305;28;20070;-48
2021/01/13 00:17:07;;;;;;;0.43;0.40;;;8.90;81.10;;;;;;5085322;28;20087;-49
2021/01/13 00:19:32;;;;;;;0.52;0.43;;;8.90;81.00;;;;;;5084800;28;20086;-48
2021/01/13 00:21:59;;;;;;;1.02;0.60;;;8.90;81.00;;;;;;5083664;28;20115;-52
2021/01/13 00:24:24;;;;;;;0.52;0.40;;;9.00;81.10;;;;;;5084163;28;20138;-48
2021/01/13 00:27:02;;;;;;;1.55;0.40;;;8.90;81.00;;;;;;5082770;28;20048;-52
2021/01/13 00:29:28;;;;;;;1.13;0.30;;;8.90;81.00;;;;;;5085402;28;20112;-47
2021/01/13 00:31:56;;;;;;;0.73;0.43;;;8.90;81.00;;;;;;5082252;28;20046;-52
2021/01/13 00:34:21;;;;;;;0.73;0.47;;;8.90;81.10;;;;;;5084513;28;20128;-51
2021/01/13 00:36:47;;;;;;;2.35;0.55;;;8.90;81.10;;;;;;5082670;28;20064;-49
2021/01/13 00:39:13;;;;;;;0.80;0.40;;;8.90;81.10;;;;;;5084241;28;20058;-51
2021/01/13 00:41:39;;;;;;;0.40;0.30;;;8.90;81.10;;;;;;5084228;28;20123;-53
2021/01/13 00:44:05;;;;;;;0.55;0.30;;;8.90;81.10;;;;;;5084559;28;20052;-53
2021/01/13 00:46:39;;;;;;;1.30;0.60;;;8.90;81.10;;;;;;5082065;28;20381;-54
2021/01/13 00:49:06;;;;;;;0.70;0.55;;;8.90;81.00;;;;;;5085327;28;20056;-53
2021/01/13 00:51:43;;;;;;;0.73;0.40;;;8.90;81.10;;;;;;5082678;28;20087;-52
2021/01/13 00:54:10;;;;;;;0.47;0.47;;;8.90;81.10;;;;;;5084444;28;20044;-51
2021/01/13 00:56:47;;;;;;;1.75;0.70;;;8.90;81.00;;;;;;5084088;28;20055;-50
2021/01/13 00:59:13;;;;;;;0.40;0.40;;;8.90;81.10;;;;;;5082850;28;20090;-47
2021/01/13 01:01:41;;;;;;;0.75;0.50;;;8.90;81.10;;;;;;5084521;28;20429;-51
2021/01/13 01:04:08;;;;;;;0.63;0.60;;;8.90;81.10;;;;;;5081886;28;20504;-48
2021/01/13 01:06:34;;;;;;;0.95;0.60;;;8.90;81.10;;;;;;5084313;28;20206;-52
2021/01/13 01:08:59;;;;;;;0.85;0.55;;;8.90;81.10;;;;;;5083027;28;20126;-49
2021/01/13 01:11:29;;;;;;;0.60;0.50;;;8.90;81.00;;;;;;5085942;28;21541;-51
2021/01/13 01:13:55;;;;;;;0.80;0.50;;;8.90;81.10;;;;;;5083109;28;20109;-53
2021/01/13 01:16:21;;;;;;;0.90;0.50;;;8.90;81.10;;;;;;5085004;28;20453;-47
2021/01/13 01:18:46;;;;;;;0.30;0.30;;;8.90;81.10;;;;;;5083785;28;20123;-49
2021/01/13 01:21:12;;;;;;;2.70;0.43;;;8.90;81.10;;;;;;5082236;28;20105;-49
2021/01/13 01:23:38;;;;;;;0.63;0.40;;;8.90;81.10;;;;;;5082996;28;20052;-47
2021/01/13 01:26:05;;;;;;;2.60;0.52;;;8.90;81.10;;;;;;5086012;28;20047;-49
2021/01/13 01:28:31;;;;;;;0.60;0.38;;;8.90;81.10;;;;;;5083972;28;20048;-46
2021/01/13 01:30:57;;;;;;;0.70;0.40;;;8.90;81.10;;;;;;5083094;28;20519;-50
2021/01/13 01:33:23;;;;;;;0.93;0.63;;;8.90;81.10;;;;;;5083045;28;20075;-50
2021/01/13 01:35:50;;;;;;;0.93;0.40;;;8.90;81.10;;;;;;5081866;28;20389;-49
2021/01/13 01:38:16;;;;;;;3.03;0.60;;;8.90;81.10;;;;;;5083131;28;20056;-48
2021/01/13 01:40:41;;;;;;;1.17;0.40;;;8.90;81.10;;;;;;5082482;28;20048;-48
2021/01/13 01:43:07;;;;;;;1.50;0.65;;;8.90;81.10;;;;;;5080897;28;20494;-46
2021/01/13 01:45:33;;;;;;;1.35;0.47;;;8.90;81.70;;;;;;5083149;28;20048;-50
2021/01/13 01:48:02;;;;;;;0.35;0.30;;;8.90;81.10;;;;;;5083316;28;20044;-47
2021/01/13 01:50:31;;;;;;;0.40;0.40;;;8.90;81.10;;;;;;5083656;28;20044;-49
2021/01/13 01:53:03;;;;;;;1.95;0.60;;;8.90;81.10;;;;;;5083551;28;20044;-49
2021/01/13 01:55:39;;;;;;;0.80;0.47;;;8.90;81.10;;;;;;5082047;28;20063;-48
2021/01/13 01:58:07;;;;;;;;;;;8.90;81.10;;;;;;5083217;28;20131;-48
2021/01/13 02:00:34;;;;;;;1.15;0.45;;;8.90;81.10;;;;;;5081215;28;19920;-48
2021/01/13 02:03:16;;;;;;;1.10;0.52;;;8.90;81.10;;;;;;5081798;28;20499;-49
2021/01/13 02:05:43;;;;;;;0.95;0.40;;;8.90;81.10;;;;;;5083154;28;20048;-49
2021/01/13 02:08:23;;;;;;;0.85;0.40;;;8.90;81.10;;;;;;5081544;28;20090;-48
2021/01/13 02:10:50;;;;;;;1.90;0.50;;;8.90;81.10;;;;;;5082262;28;20051;-50
2021/01/13 02:13:19;;;;;;;0.63;0.40;;;8.90;81.10;;;;;;5083262;28;20096;-51
2021/01/13 02:15:45;;;;;;;0.52;0.40;;;8.90;81.10;;;;;;5081520;28;20119;-51
2021/01/13 02:18:14;;;;;;;0.40;0.40;;;8.90;81.10;;;;;;5081534;28;20047;-53
2021/01/13 02:20:40;;;;;;;1.05;0.45;;;8.90;81.10;;;;;;5082888;28;20486;-53
2021/01/13 02:23:10;;;;;;;1.02;0.75;;;8.90;81.10;;;;;;5081474;28;20100;-52
2021/01/13 02:26:24;;;;;;;2.38;0.63;;;8.90;81.10;;;;;;5080898;28;20047;-52
2021/01/13 02:29:12;;;;;;;0.35;0.30;;;8.90;81.10;;;;;;5083403;28;20040;-52
2021/01/13 02:31:49;;;;;;;0.85;0.50;;;8.90;81.10;;;;;;5084139;28;20076;-50
2021/01/13 02:34:22;;;;;;;0.75;0.47;;;8.90;81.10;;;;;;5081953;28;20049;-50
2021/01/13 02:37:26;;;;;;;0.40;0.40;;;8.90;81.10;;;;;;5081170;28;20060;-52
2021/01/13 02:39:54;;;;;;;0.90;0.52;;;8.90;81.10;;;;;;5080866;28;20135;-49
2021/01/13 02:42:27;;;;;;;0.60;0.50;;;8.90;81.10;;;;;;5084027;28;20048;-48
2021/01/13 02:45:13;;;;;;;1.88;1.00;;;8.90;81.10;;;;;;5080949;28;20055;-47
2021/01/13 02:48:06;;;;;;;0.73;0.50;;;8.90;81.10;;;;;;5082404;28;20132;-49
2021/01/13 02:50:43;;;;;;;1.17;0.50;;;8.90;81.10;;;;;;5082822;28;20048;-48
2021/01/13 02:53:41;;;;;;;0.30;0.30;;;8.90;81.10;;;;;;5082666;28;20139;-53
2021/01/13 02:56:14;;;;;;;0.30;0.30;;;8.90;81.10;;;;;;5082142;28;20068;-50
2021/01/13 02:58:40;;;;;;;0.80;0.57;;;8.90;81.10;;;;;;5082576;28;20502;-49
2021/01/13 03:01:08;;;;;;;1.13;0.77;;;8.90;81.10;;;;;;5083688;28;20075;-51
2021/01/13 03:03:35;;;;;;;0.65;0.40;;;8.90;81.10;;;;;;5081353;28;20044;-49
2021/01/13 03:06:05;;;;;;;0.38;0.38;;;8.90;81.10;;;;;;5084022;28;20399;-51
2021/01/13 03:08:45;;;;;;;0.63;0.40;;;8.90;81.20;;;;;;5082919;28;20047;-49
2021/01/13 03:11:20;;;;;;;1.17;0.50;;;8.90;81.10;;;;;;5085250;28;20049;-48
2021/01/13 03:13:46;;;;;;;0.63;0.57;;;8.90;81.10;;;;;;5086228;28;20058;-49
2021/01/13 03:16:13;;;;;;;0.47;0.40;;;8.90;81.10;;;;;;5085149;28;20055;-50
2021/01/13 03:18:53;;;;;;;0.63;0.43;;;8.90;81.10;;;;;;5083841;28;20434;-51
2021/01/13 03:21:25;;;;;;;0.55;0.32;;;8.90;81.20;;;;;;5084617;28;20051;-49
2021/01/13 03:24:08;;;;;;;0.30;0.30;;;8.90;81.10;;;;;;5086286;28;20082;-49
2021/01/13 03:26:39;;;;;;;0.85;0.40;;;8.90;81.10;;;;;;5084413;28;20492;-50
2021/01/13 03:29:06;;;;;;;0.50;0.40;;;8.90;81.10;;;;;;5085175;28;20044;-46
2021/01/13 03:31:50;;;;;;;1.00;0.40;;;8.90;81.10;;;;;;5086146;28;20455;-49
2021/01/13 03:34:30;;;;;;;0.57;0.30;;;8.90;81.10;;;;;;5084825;28;20067;-49
2021/01/13 03:37:05;;;;;;;0.93;0.50;;;8.90;81.10;;;;;;5085842;28;20122;-49
2021/01/13 03:39:39;;;;;;;0.70;0.30;;;8.90;81.10;;;;;;5085998;28;20044;-48
2021/01/13 03:42:16;;;;;;;0.30;0.30;;;8.90;81.80;;;;;;5086505;28;20128;-54
2021/01/13 03:44:44;;;;;;;0.80;0.40;;;8.90;81.10;;;;;;5085236;28;20052;-53
2021/01/13 03:47:16;;;;;;;1.90;0.55;;;8.90;81.10;;;;;;5086317;28;20036;-47
2021/01/13 03:50:16;;;;;;;0.65;0.60;;;8.90;81.10;;;;;;5086810;28;20094;-52
2021/01/13 03:53:03;;;;;;;1.10;0.30;;;8.90;81.10;;;;;;5085600;28;20174;-50
2021/01/13 03:55:32;;;;;;;0.77;0.43;;;8.90;81.10;;;;;;5088131;28;20121;-49
2021/01/13 03:57:58;;;;;;;0.60;0.50;;;8.90;81.10;;;;;;5084150;28;20051;-50
2021/01/13 04:00:29;;;;;;;0.68;0.50;;;8.90;81.10;;;;;;5085251;28;20040;-53
2021/01/13 04:03:12;;;;;;;0.30;0.30;;;8.90;81.10;;;;;;5083739;28;20055;-49
2021/01/13 04:05:51;;;;;;;1.88;0.75;;;8.90;81.10;;;;;;5084302;28;20279;-51
2021/01/13 04:08:18;;;;;;;1.27;0.50;;;8.90;81.10;;;;;;5083372;28;20043;-49
2021/01/13 04:10:45;;;;;;;1.05;0.40;;;8.90;81.10;;;;;;5084184;28;20090;-50
2021/01/13 04:13:24;;;;;;;0.65;0.40;;;8.90;81.10;;;;;;5084374;28;20485;-50
2021/01/13 04:15:51;;;;;;;1.00;0.40;;;8.90;81.10;;;;;;5082877;28;20055;-50
2021/01/13 04:18:18;;;;;;;1.10;0.50;;;8.90;81.10;;;;;;5085109;28;20048;-53
2021/01/13 04:20:44;;;;;;;0.68;0.45;;;8.90;81.10;;;;;;5084762;28;20051;-49
2021/01/13 04:23:10;;;;;;;0.55;0.40;;;8.90;81.20;;;;;;5082318;28;20059;-53
2021/01/13 04:25:36;;;;;;;0.40;0.40;;;8.90;81.10;;;;;;5085935;28;20051;-49
2021/01/13 04:28:03;;;;;;;0.20;0.20;;;8.90;81.10;;;;;;5083753;28;20047;-50
2021/01/13 04:30:29;;;;;;;0.55;0.40;;;8.90;81.10;;;;;;5086398;28;20095;-52
2021/01/13 04:32:56;;;;;;;1.65;0.98;;;8.90;81.10;;;;;;5084594;28;20039;-49
2021/01/13 04:35:24;;;;;;;0.73;0.30;;;8.90;81.10;;;;;;5084276;28;20049;-49
2021/01/13 04:37:55;;;;;;;0.93;0.40;;;8.90;81.10;;;;;;5085080;28;20044;-49
2021/01/13 04:40:30;;;;;;;0.40;0.35;;;8.90;81.10;;;;;;5085808;28;20085;-51
2021/01/13 04:43:07;;;;;;;1.40;0.77;;;8.90;81.10;;;;;;5082551;28;20040;-49
2021/01/13 04:45:47;;;;;;;0.68;0.60;;;8.90;81.10;;;;;;5082427;28;20322;-49
2021/01/13 04:48:20;;;;;;;0.90;0.38;;;8.90;81.10;;;;;;5082519;28;20063;-48
2021/01/13 04:50:49;;;;;;;0.93;0.43;;;8.90;81.10;;;;;;5084051;28;20447;-51
2021/01/13 04:53:18;;;;;;;0.75;0.68;;;8.90;81.10;;;;;;5082983;28;20044;-52
2021/01/13 04:55:50;;;;;;;1.27;0.43;;;8.90;81.10;;;;;;5082677;28;20040;-51
2021/01/13 04:58:40;;;;;;;1.45;0.45;;;8.90;81.10;;;;;;5082789;28;20076;-51
2021/01/13 05:01:34;;;;;;;1.27;0.52;;;8.90;81.10;;;;;;5083979;28;20044;-52
2021/01/13 05:04:01;;;;;;;0.40;0.40;;;8.90;81.10;;;;;;5083502;28;20048;-52
2021/01/13 05:06:48;;;;;;;0.50;0.50;;;8.90;81.10;;;;;;5083164;28;20045;-50
2021/01/13 05:09:16;;;;;;;0.57;0.50;;;8.90;81.10;;;;;;5082618;28;20125;-48
2021/01/13 05:11:46;;;;;;;1.10;0.60;;;8.90;81.10;;;;;;5084351;28;20392;-53
2021/01/13 05:14:13;;;;;;;0.50;0.50;;;8.90;81.10;;;;;;5086088;28;20104;-49
2021/01/13 05:17:03;;;;;;;0.85;0.40;;;8.90;81.10;;;;;;5082309;28;20484;-52
2021/01/13 05:19:32;;;;;;;1.60;0.60;;;8.90;81.10;;;;;;5084200;28;20054;-49
2021/01/13 05:22:01;;;;;;;1.77;0.75;;;8.90;81.10;;;;;;5084085;28;20054;-51
2021/01/13 05:24:28;;;;;;;0.40;0.40;;;8.80;81.10;;;;;;5085500;28;20138;-50
2021/01/13 05:27:04;;;;;;;0.35;0.30;;;8.90;81.70;;;;;;5082158;28;20484;-51
2021/01/13 05:29:38;;;;;;;0.93;0.38;;;8.90;81.10;;;;;;5083767;28;20047;-50
2021/01/13 05:32:06;;;;;;;0.95;0.57;;;8.90;81.10;;;;;;5082977;28;20399;-45
2021/01/13 05:34:36;;;;;;;1.10;0.38;;;8.90;81.10;;;;;;5084401;28;20480;-50
2021/01/13 05:37:15;;;;;;;1.70;0.57;;;8.90;81.10;;;;;;5082573;28;20044;-47
2021/01/13 05:39:41;;;;;;;0.55;0.40;;;8.90;81.10;;;;;;5083016;28;20044;-48
2021/01/13 05:42:07;;;;;;;0.90;0.40;;;8.90;81.10;;;;;;5083427;28;20101;-52
2021/01/13 05:44:33;;;;;;;0.57;0.43;;;8.90;81.10;;;;;;5082449;28;20411;-53
2021/01/13 05:47:05;;;;;;;0.77;0.40;;;8.90;81.10;;;;;;5082006;28;20048;-47
2021/01/13 05:49:32;;;;;;;1.10;0.52;;;8.90;81.10;;;;;;5081322;28;20119;-51
2021/01/13 05:52:06;;;;;;;0.60;0.35;;;8.90;81.10;;;;;;5083008;28;20071;-48
2021/01/13 05:54:34;;;;;;;0.63;0.40;;;8.90;81.10;;;;;;5083056;28;20053;-50
2021/01/13 05:57:02;;;;;;;1.00;0.52;;;8.90;81.10;;;;;;5084117;28;20059;-48
2021/01/13 05:59:29;;;;;;;0.30;0.30;;;8.90;81.10;;;;;;5082314;28;20054;-52
2021/01/13 06:02:00;;;;;;;0.93;0.40;;;8.90;81.10;;;;;;5081079;28;20091;-48
2021/01/13 06:04:26;;;;;;;0.55;0.52;;;8.90;81.10;;;;;;5081752;28;20097;-48
2021/01/13 06:07:13;;;;;;;0.68;0.32;;;8.90;81.10;;;;;;5083456;28;20546;-49
2021/01/13 06:09:43;;;;;;;0.32;0.32;;;8.90;81.10;;;;;;5082051;28;20076;-52
2021/01/13 06:12:17;;;;;;;0.63;0.43;;;8.90;81.10;;;;;;5081972;28;20523;-48
2021/01/13 06:14:43;;;;;;;1.02;0.40;;;8.90;81.70;;;;;;5082972;28;20039;-48
2021/01/13 06:17:24;;;;;;;0.85;0.45;;;8.90;81.10;;;;;;5081553;28;20531;-48
2021/01/13 06:19:52;;;;;;;0.38;0.38;;;8.90;81.10;;;;;;5083248;28;20047;-49
2021/01/13 06:22:27;;;;;;;1.15;0.43;;;8.90;81.10;;;;;;5083014;28;20097;-49
2021/01/13 06:24:57;;;;;;;0.40;0.40;;;8.90;81.10;;;;;;5083648;28;20048;-49
2021/01/13 06:27:29;;;;;;;0.30;0.30;;;8.90;81.10;;;;;;5082985;28;20041;-50
2021/01/13 06:30:02;;;;;;;1.35;0.40;;;8.90;81.10;;;;;;5083066;28;20055;-50
2021/01/13 06:32:33;;;;;;;1.35;0.40;;;8.90;81.10;;;;;;5084072;28;20132;-47
2021/01/13 06:35:14;;;;;;;0.40;0.30;;;8.90;81.10;;;;;;5082020;28;20052;-50
2021/01/13 06:37:48;;;;;;;1.20;0.40;;;8.90;81.10;;;;;;5082437;28;20044;-49
2021/01/13 06:40:16;;;;;;;0.55;0.30;;;8.90;81.10;;;;;;5080870;28;20121;-50
2021/01/13 06:42:42;;;;;;;0.68;0.50;;;8.90;81.10;;;;;;5082080;28;20043;-53
2021/01/13 06:45:09;;;;;;;0.45;0.40;;;8.90;81.10;;;;;;5083206;28;20052;-53
2021/01/13 06:47:36;;;;;;;1.55;0.52;;;8.90;81.10;;;;;;5086099;28;20086;-47
2021/01/13 06:50:03;;;;;;;0.75;0.47;;;8.90;81.10;;;;;;5086021;28;20492;-51
2021/01/13 06:52:33;;;;;;;0.52;0.40;;;8.90;81.10;;;;;;5087924;28;20044;-49
2021/01/13 06:55:02;;;;;;;1.13;0.40;;;8.90;81.10;;;;;;5086315;28;20567;-47
2021/01/13 06:57:29;;;;;;;0.88;0.70;;;8.90;81.10;;;;;;5086694;28;20238;-50
2021/01/13 06:59:56;;;;;;;0.40;0.40;;;8.90;81.10;;;;;;5084672;28;20086;-52
2021/01/13 07:02:35;;;;;;;0.40;0.40;;;8.90;81.00;;;;;;5071690;28;20041;-50
2021/01/13 07:05:01;;;;;;;1.23;0.50;;;8.90;81.10;;;;;;5085547;28;20040;-48
2021/01/13 07:07:29;;;;;;;1.58;0.68;;;8.90;81.00;;;;;;5087318;28;20047;-48
2021/01/13 07:09:54;;;;;;;0.73;0.50;;;8.90;81.00;;;;;;5088787;28;20047;-49
2021/01/13 07:12:24;;;;;;;0.30;0.30;;;8.90;81.10;;;;;;5085497;28;20044;-49
2021/01/13 07:14:53;;;;;;;0.60;0.50;;;8.90;81.10;;;;;;5085000;28;20036;-47
2021/01/13 07:17:22;;;;;;;0.52;0.32;;;8.90;81.00;;;;;;5086344;28;20056;-47
2021/01/13 07:19:49;;;;;;;0.50;0.50;;;8.90;81.10;;;;;;5085363;28;20545;-45
2021/01/13 07:22:17;;;;;;;1.77;0.45;;;8.90;81.00;;;;;;5086100;28;20480;-48
2021/01/13 07:24:44;;;;;;;1.48;0.85;;;8.90;81.00;;;;;;5084428;28;20403;-48
2021/01/13 07:27:12;;;;;;;0.47;0.30;;;8.90;81.00;;;;;;5086098;28;20097;-46
2021/01/13 07:29:39;;;;;;;0.45;0.40;;;8.90;81.00;;;;;;5085700;28;20044;-48
2021/01/13 07:32:07;;;;;;;0.47;0.40;;;8.90;81.00;;;;;;5083825;28;20366;-47
2021/01/13 07:34:33;;;;;;;0.77;0.45;;;8.90;81.10;;;;;;5083653;28;20120;-47
2021/01/13 07:37:05;;;;;;;0.22;0.22;;;8.90;81.00;;;;;;5085631;28;20055;-50
2021/01/13 07:40:21;;;;;;;0.65;0.50;;;8.90;81.00;;;;;;5087857;28;20054;-49
2021/01/13 07:42:47;;;;;;;0.88;0.45;;;8.90;81.00;;;;;;5084836;28;20045;-49
2021/01/13 07:45:15;;;;;;;0.85;0.50;;;8.90;81.00;;;;;;5084073;28;20063;-51
2021/01/13 07:47:49;;;;;;;0.50;0.50;;;8.90;81.00;;;;;;5083566;28;20420;-49
2021/01/13 07:50:17;;;;;;;0.57;0.30;;;8.90;81.00;;;;;;5086278;28;20135;-49
2021/01/13 07:52:48;;;;;;;0.63;0.50;;;8.90;81.00;;;;;;5083897;28;20419;-50
2021/01/13 07:55:15;;;;;;;1.60;0.50;;;8.90;81.00;;;;;;5087209;28;20090;-47
2021/01/13 07:57:49;;;;;;;0.32;0.32;;;8.90;81.70;;;;;;5083647;28;20064;-50
2021/01/13 08:00:24;;;;;;;0.93;0.73;;;8.90;81.00;;;;;;5085403;28;20099;-49
2021/01/13 08:03:18;;;;;;;0.63;0.40;;;8.90;81.00;;;;;;5084921;28;20061;-48
2021/01/13 08:06:18;;;;;;;0.65;0.47;;;8.90;81.00;;;;;;5083859;28;20041;-48
2021/01/13 08:09:09;;;;;;;1.20;0.40;;;8.90;81.00;;;;;;5083940;28;20116;-47
2021/01/13 08:11:56;;;;;;;1.45;0.30;;;8.90;81.00;;;;;;5084535;28;20055;-48
2021/01/13 08:14:52;;;;;;;0.55;0.30;;;8.90;81.00;;;;;;5091693;28;20131;-51
2021/01/13 08:17:47;;;;;;;0.47;0.47;;;8.90;81.00;;;;;;5082494;28;20060;-47
2021/01/13 08:20:50;;;;;;;1.10;0.50;;;8.90;81.00;;;;;;5072896;28;20097;-48
2021/01/13 08:23:28;;;;;;;0.50;0.50;;;8.90;81.00;;;;;;5073703;28;20106;-47
2021/01/13 08:25:57;;;;;;;7.88;1.77;;;8.90;81.00;;;;;;5074045;28;20094;-45
2021/01/13 08:28:24;;;;;;;4.40;1.30;;;8.80;80.10;;;;;;5073995;28;20178;-44
2021/01/13 08:30:52;;;;;;;4.68;1.30;;;8.60;79.90;;;;;;5073877;28;20433;-48
2021/01/13 08:33:20;;;;;;;8.00;1.80;;;8.60;80.10;;;;;;5073097;28;20067;-45
2021/01/13 08:35:57;;;;;;;4.20;1.70;;;8.50;80.00;;;;;;5073644;28;20461;-46
2021/01/13 08:38:23;;;;;;;11.95;1.80;;;8.60;80.00;;;;;;5073833;28;20086;-44
2021/01/13 08:40:50;;;;;;;7.93;1.73;;;8.60;80.00;;;;;;5073635;28;20456;-47
2021/01/13 08:43:17;;;;;;;6.13;1.40;;;8.60;80.00;;;;;;5073405;28;20045;-56
2021/01/13 08:45:44;;;;;;;5.03;1.40;;;8.60;80.00;;;;;;5073586;28;20053;-49
2021/01/13 08:48:10;;;;;;;4.43;1.30;;;8.60;80.00;;;;;;5073029;28;20067;-44
2021/01/13 08:50:36;;;;;;;4.72;1.40;;;8.60;80.00;;;;;;5082355;28;20060;-49
2021/01/13 08:53:03;;;;;;;9.02;1.33;;;8.60;80.00;;;;;;5073163;28;20050;-45
2021/01/13 08:55:30;;;;;;;3.20;1.40;;;8.70;80.00;;;;;;5073353;28;20083;-49
2021/01/13 08:58:06;;;;;;;6.05;1.50;;;8.60;80.00;;;;;;5073485;28;20044;-44
2021/01/13 09:00:33;;;;;;;2.80;1.20;;;8.60;80.00;;;;;;5073209;28;20049;-54
2021/01/13 09:03:13;;;;;;;4.55;1.40;;;8.70;80.10;;;;;;5072769;28;20424;-48
2021/01/13 09:05:41;;;;;;;5.47;1.50;;;8.70;80.00;;;;;;5073494;28;20139;-43
2021/01/13 09:08:11;;;;;;;4.28;1.05;;;8.70;80.00;;;;;;5072580;28;20048;-46
2021/01/13 09:10:49;;;;;;;6.40;1.90;;;8.70;80.10;;;;;;5073128;28;20076;-48
2021/01/13 09:13:30;;;;;;;3.92;1.15;;;8.70;79.50;;;;;;5072525;28;20048;-55
2021/01/13 09:15:56;;;;;;;3.05;1.20;;;8.60;79.60;;;;;;5087335;28;20052;-60
2021/01/13 09:18:23;;;;;;;2.67;0.98;;;8.60;79.80;;;;;;5092644;28;20043;-61
2021/01/13 09:20:50;;;;;;;2.92;0.82;;;8.60;79.90;;;;;;5090710;28;20109;-59
2021/01/13 09:23:22;;;;;;;5.25;1.05;;;8.50;79.90;;;;;;5093006;28;20050;-58
2021/01/13 09:25:56;;;;;;;3.08;0.85;;;8.60;80.00;;;;;;5093766;28;20055;-61
2021/01/13 09:28:22;;;;;;;5.07;1.33;;;8.60;80.00;;;;;;5090120;28;20068;-61
2021/01/13 09:30:48;;;;;;;3.00;1.10;;;8.60;80.10;;;;;;5082103;28;20036;-61
2021/01/13 09:33:15;;;;;;;3.33;1.13;;;8.60;80.10;;;;;;5082649;28;20400;-60
2021/01/13 09:35:44;;;;;;;3.08;1.10;;;8.60;80.20;;;;;;5084143;28;20064;-59
2021/01/13 09:38:13;;;;;;;3.22;0.98;;;8.60;80.20;;;;;;5083636;28;20068;-61
2021/01/13 09:40:54;;;;;;;7.93;1.35;;;8.60;80.30;;;;;;5083688;28;20048;-60
2021/01/13 09:43:26;;;;;;;1.88;0.75;;;8.60;80.30;;;;;;5085969;28;20070;-58
2021/01/13 09:45:53;;;;;;;3.22;0.90;;;8.60;80.30;;;;;;5087162;28;20452;-58
2021/01/13 09:48:19;;;;;;;2.25;0.80;;;8.60;80.30;;;;;;5082649;28;20147;-60
2021/01/13 09:50:46;;;;;;;3.83;1.00;;;8.60;80.40;;;;;;5083728;28;20101;-54
2021/01/13 09:53:13;;;;;;;7.70;1.50;;;8.60;80.40;;;;;;5090556;28;20135;-59
2021/01/13 09:55:39;;;;;;;2.83;1.17;;;8.60;80.40;;;;;;5082829;28;20507;-50
2021/01/13 09:58:34;;;;;;;2.45;1.05;;;8.60;80.50;;;;;;5082621;28;20044;-59
2021/01/13 10:01:07;;;;;;;3.60;1.10;;;8.60;80.50;;;;;;5082368;28;20467;-60
2021/01/13 10:03:33;;;;;;;3.25;1.45;;;8.70;80.60;;;;;;5062516;28;20548;-60
2021/01/13 10:05:59;;;;;;;2.13;0.88;;;8.70;81.40;;;;;;5062117;28;20135;-55
2021/01/13 10:08:31;;;;;;;2.85;1.00;;;8.60;80.60;;;;;;5083777;28;20043;-58
2021/01/13 10:11:01;;;;;;;2.75;0.90;;;8.60;80.60;;;;;;5080619;28;20101;-59
2021/01/13 10:13:29;;;;;;;2.08;1.00;;;8.70;80.80;;;;;;5082242;28;20131;-59
2021/01/13 10:16:00;;;;;;;1.40;0.90;;;8.70;80.80;;;;;;5082425;28;20052;-58
2021/01/13 10:18:27;;;;;;;2.72;1.10;;;8.70;80.80;;;;;;5082885;28;20067;-55
2021/01/13 10:20:59;;;;;;;2.45;1.20;;;8.70;80.80;;;;;;5082567;28;20048;-58
2021/01/13 10:23:30;;;;;;;3.30;1.00;;;8.70;80.90;;;;;;5085574;28;20127;-56
2021/01/13 10:26:09;;;;;;;1.95;0.90;;;8.70;80.90;;;;;;5086591;28;20075;-59
2021/01/13 10:28:36;;;;;;;1.67;1.00;;;8.70;80.90;;;;;;5086803;28;20072;-59
2021/01/13 10:31:04;;;;;;;1.42;0.68;;;8.70;80.90;;;;;;5084849;28;20488;-59
2021/01/13 10:33:48;;;;;;;2.35;0.80;;;8.70;81.00;;;;;;5078370;28;20036;-55
2021/01/13 10:36:32;;;;;;;2.75;1.02;;;8.70;81.20;;;;;;5062738;28;20407;-52
2021/01/13 10:39:03;;;;;;;2.78;0.80;;;8.70;81.30;;;;;;5078765;28;20123;-47
2021/01/13 10:41:30;;;;;;;1.98;0.82;;;8.70;81.00;;;;;;5087139;28;20159;-60
2021/01/13 10:44:17;;;;;;;3.75;1.08;;;8.70;81.10;;;;;;5086080;28;20040;-58
2021/01/13 10:47:11;;;;;;;0.75;0.52;;;8.70;81.10;;;;;;5084483;28;20051;-57
2021/01/13 10:49:47;;;;;;;1.75;1.13;;;8.70;81.10;;;;;;5087061;28;20181;-60
2021/01/13 10:52:14;;;;;;;3.42;0.70;;;8.70;81.10;;;;;;5086345;28;20052;-59
2021/01/13 10:54:45;;;;;;;1.48;0.90;;;8.70;81.20;;;;;;5085026;28;20041;-59
2021/01/13 10:57:13;;;;;;;2.80;1.13;;;8.70;81.20;;;;;;5096599;28;20043;-59
2021/01/13 10:59:40;;;;;;;2.22;0.73;;;8.70;81.20;;;;;;5096247;28;20048;-60
2021/01/13 11:02:08;;;;;;;2.28;0.63;;;8.70;81.20;;;;;;5096319;28;20040;-59
2021/01/13 11:04:35;;;;;;;3.53;0.70;;;8.80;81.30;;;;;;5096294;28;20564;-60
2021/01/13 11:07:13;;;;;;;1.98;0.75;;;8.70;81.30;;;;;;5095813;28;20408;-59
2021/01/13 11:09:47;;;;;;;4.05;0.80;;;8.80;81.40;;;;;;5096060;28;20051;-58
2021/01/13 11:12:24;;;;;;;0.88;0.60;;;8.80;81.40;;;;;;5085384;28;20058;-59
2021/01/13 11:14:53;;;;;;;2.22;0.80;;;8.80;81.40;;;;;;5086210;28;20077;-58
2021/01/13 11:17:21;;;;;;;1.75;0.80;;;8.80;81.40;;;;;;5086485;28;20417;-59
2021/01/13 11:19:54;;;;;;;3.15;1.05;;;8.80;81.40;;;;;;5086670;28;20067;-57
2021/01/13 11:22:44;;;;;;;3.15;0.90;;;8.70;81.40;;;;;;5085696;28;20494;-59
2021/01/13 11:25:23;;;;;;;2.05;0.90;;;8.80;81.40;;;;;;5075765;28;20052;-58
2021/01/13 11:27:58;;;;;;;1.55;0.70;;;8.80;81.40;;;;;;5075566;28;20079;-59
2021/01/13 11:30:24;;;;;;;;;;;8.80;81.50;;;;;;5076203;28;20052;-58
2021/01/13 11:32:51;;;;;;;;;;;8.80;81.50;;;;;;5083922;28;20299;-59
2021/01/13 11:35:25;;;;;;;1.90;0.70;;;8.80;81.50;;;;;;5095543;28;20389;-57
2021/01/13 11:38:21;;;;;;;1.25;0.63;;;8.80;81.50;;;;;;5095473;28;20040;-59
2021/01/13 11:41:21;;;;;;;2.35;0.63;;;8.80;81.50;;;;;;5095356;28;20044;-57
2021/01/13 11:44:25;;;;;;;1.00;0.70;;;8.80;81.50;;;;;;5095463;28;20193;-59
2021/01/13 11:47:26;;;;;;;1.88;0.73;;;8.80;81.50;;;;;;5095370;28;20131;-59
2021/01/13 11:49:54;;;;;;;2.90;0.88;;;8.80;81.50;;;;;;4993660;28;20054;-58
2021/01/13 11:52:22;;;;;;;2.92;0.93;;;8.80;81.50;;;;;;4984635;28;20047;-59
2021/01/13 11:54:53;;;;;;;0.93;0.50;;;8.80;81.50;;;;;;4984927;28;20092;-59
2021/01/13 11:57:18;;;;;;;1.95;0.60;;;8.80;81.50;;;;;;4979542;28;20047;-58
2021/01/13 11:59:45;;;;;;;1.17;0.80;;;8.80;81.60;;;;;;4973998;28;20110;-57
2021/01/13 12:02:29;;;;;;;1.15;0.77;;;8.80;81.60;;;;;;4974079;28;20499;-54
2021/01/13 12:04:55;;;;;;;1.95;0.80;;;8.80;81.60;;;;;;4984072;28;20068;-56
2021/01/13 12:07:20;;;;;;;1.30;0.47;;;8.80;81.60;;;;;;4992620;28;20137;-52
2021/01/13 12:10:10;;;;;;;1.20;0.88;;;8.80;81.60;;;;;;4993355;28;20186;-57
2021/01/13 12:12:36;;;;;;;1.27;0.50;;;8.80;81.60;;;;;;4993298;28;20054;-56
2021/01/13 12:15:09;;;;;;;1.40;0.73;;;8.90;81.70;;;;;;4993066;28;20042;-56
2021/01/13 12:17:50;;;;;;;0.90;0.60;;;8.90;81.70;;;;;;4993227;28;20050;-57
2021/01/13 12:20:32;;;;;;;2.38;0.70;;;8.90;82.30;;;;;;4993232;28;20046;-57
2021/01/13 12:22:58;;;;;;;1.35;0.60;;;8.90;81.70;;;;;;4993003;28;20054;-56
2021/01/13 12:25:25;;;;;;;2.28;0.75;;;8.90;81.70;;;;;;5007484;28;20094;-57
2021/01/13 12:28:05;;;;;;;1.23;0.60;;;8.90;81.70;;;;;;5094693;28;20047;-57
2021/01/13 12:30:30;;;;;;;1.63;0.70;;;8.90;81.70;;;;;;5094711;28;20051;-58
2021/01/13 12:32:58;;;;;;;2.20;0.50;;;8.90;81.70;;;;;;5089719;28;20416;-57
2021/01/13 12:35:28;;;;;;;1.42;0.65;;;8.90;81.70;;;;;;5084963;28;20055;-57
2021/01/13 12:37:54;;;;;;;1.52;0.50;;;8.90;81.70;;;;;;5083573;28;20044;-57
2021/01/13 12:40:33;;;;;;;1.30;0.60;;;8.90;81.70;;;;;;5084710;28;20049;-57
2021/01/13 12:43:19;;;;;;;2.03;0.52;;;8.90;81.60;;;;;;5083624;28;20064;-58
2021/01/13 12:45:46;;;;;;;2.33;0.95;;;8.90;81.60;;;;;;5084268;28;20063;-57
2021/01/13 12:48:13;;;;;;;1.13;0.57;;;8.90;81.70;;;;;;5085539;28;20048;-57
2021/01/13 12:50:40;;;;;;;0.50;0.40;;;8.90;81.70;;;;;;5083559;28;20237;-56
2021/01/13 12:53:05;;;;;;;2.42;0.60;;;8.90;81.70;;;;;;5084511;28;20569;-58
2021/01/13 12:55:31;;;;;;;1.30;0.57;;;8.90;81.60;;;;;;5082953;28;20048;-57
2021/01/13 12:57:57;;;;;;;2.92;1.58;;;8.90;81.60;;;;;;5084821;28;20050;-56
2021/01/13 13:00:24;;;;;;;1.20;0.70;;;8.90;81.70;;;;;;5082304;28;20561;-59
2021/01/13 13:02:50;;;;;;;2.35;0.70;;;8.90;81.60;;;;;;5082683;28;20079;-58
2021/01/13 13:05:16;;;;;;;0.80;0.52;;;8.90;81.60;;;;;;5083547;28;20500;-55
2021/01/13 13:07:43;;;;;;;2.03;0.73;;;8.90;81.70;;;;;;5083764;28;20045;-54
2021/01/13 13:10:09;;;;;;;1.60;0.63;;;8.90;81.60;;;;;;5084434;28;20048;-58
2021/01/13 13:12:35;;;;;;;0.47;0.47;;;8.90;81.70;;;;;;5083602;28;20059;-59
2021/01/13 13:15:00;;;;;;;1.30;0.60;;;8.90;81.60;;;;;;5083920;28;20481;-58
2021/01/13 13:17:26;;;;;;;2.42;0.88;;;8.90;81.60;;;;;;5081935;28;20079;-59
2021/01/13 13:19:52;;;;;;;1.45;0.50;;;8.90;81.60;;;;;;5083112;28;20040;-58
2021/01/13 13:22:17;;;;;;;1.60;0.60;;;9.00;81.70;;;;;;5083287;28;20047;-58